createdAt,value
2023-02-11T00:01:13.016Z,101833.00
2023-02-11T00:03:41.234Z,101818.98
2023-02-11T00:06:10.724Z,101814.01
2023-02-11T00:08:39.012Z,101805.85
2023-02-11T00:11:07.292Z,101800.61
2023-02-11T00:13:35.091Z,101797.36
2023-02-11T00:16:08.273Z,101794.69
2023-02-11T00:18:36.158Z,101797.70
2023-02-11T00:21:08.169Z,101794.57
2023-02-11T00:23:36.564Z,101791.23
2023-02-11T00:26:11.075Z,101787.55
2023-02-11T00:28:38.856Z,101789.58
2023-02-11T00:31:09.545Z,101790.55
2023-02-11T00:33:38.326Z,101778.39
2023-02-11T00:36:11.446Z,101775.89
2023-02-11T00:38:39.168Z,101776.09
2023-02-11T00:41:07.114Z,101769.34
2023-02-11T00:43:36.165Z,101765.58
2023-02-11T00:46:04.304Z,101762.55
2023-02-11T00:48:32.451Z,101765.66
2023-02-11T00:51:03.416Z,101766.39
2023-02-11T00:53:31.372Z,101761.27
2023-02-11T00:56:00.467Z,101757.36
2023-02-11T00:58:28.608Z,101753.23
2023-02-11T01:00:56.564Z,101749.41
2023-02-11T01:03:25.904Z,101746.05
2023-02-11T01:05:53.848Z,101746.58
2023-02-11T01:08:21.816Z,101744.13
2023-02-11T01:10:56.107Z,101744.38
2023-02-11T01:13:24.978Z,101744.66
2023-02-11T01:15:55.921Z,101742.39
2023-02-11T01:18:24.557Z,101738.26
2023-02-11T01:20:53.424Z,101740.11
2023-02-11T01:23:21.251Z,101733.48
2023-02-11T01:25:49.466Z,101723.75
2023-02-11T01:28:18.730Z,101717.70
2023-02-11T01:30:46.908Z,101711.54
2023-02-11T01:33:14.955Z,101708.42
2023-02-11T01:35:43.208Z,101711.20
2023-02-11T01:38:16.307Z,101708.24
2023-02-11T01:40:48.559Z,101701.71
2023-02-11T01:43:16.338Z,101693.73
2023-02-11T01:45:57.995Z,101687.15
2023-02-11T01:48:29.688Z,101678.38
2023-02-11T01:51:04.649Z,101676.23
2023-02-11T01:54:03.763Z,101670.31
2023-02-11T01:56:51.127Z,101663.75
2023-02-11T01:59:24.130Z,101656.95
2023-02-11T02:01:56.880Z,101655.79
2023-02-11T02:04:30.880Z,101655.11
2023-02-11T02:07:06.200Z,101651.61
2023-02-11T02:09:41.617Z,101649.02
2023-02-11T02:12:09.378Z,101642.64
2023-02-11T02:14:40.205Z,101640.79
2023-02-11T02:17:10.140Z,101641.19
2023-02-11T02:20:07.973Z,101640.64
2023-02-11T02:23:09.329Z,101630.05
2023-02-11T02:26:01.478Z,101626.96
2023-02-11T02:28:46.681Z,101613.58
2023-02-11T02:31:25.350Z,101607.75
2023-02-11T02:34:00.293Z,101604.86
2023-02-11T02:36:37.791Z,101602.09
2023-02-11T02:39:10.380Z,101599.28
2023-02-11T02:41:39.844Z,101597.34
2023-02-11T02:44:08.686Z,101601.90
2023-02-11T02:46:37.333Z,101596.98
2023-02-11T02:49:12.115Z,101595.27
2023-02-11T02:52:03.856Z,101585.27
2023-02-11T02:54:52.981Z,101585.59
2023-02-11T02:57:32.387Z,101585.40
2023-02-11T03:00:14.909Z,101577.06
2023-02-11T03:02:51.924Z,101569.20
2023-02-11T03:05:30.209Z,101570.02
2023-02-11T03:08:04.905Z,101569.52
2023-02-11T03:10:36.816Z,101563.02
2023-02-11T03:13:06.539Z,101557.84
2023-02-11T03:15:40.242Z,101545.94
2023-02-11T03:18:13.309Z,101543.53
2023-02-11T03:20:44.690Z,101557.17
2023-02-11T03:23:17.957Z,101562.11
2023-02-11T03:25:51.918Z,101549.88
2023-02-11T03:28:29.140Z,101550.36
2023-02-11T03:31:09.421Z,101555.06
2023-02-11T03:33:45.685Z,101556.55
2023-02-11T03:36:18.494Z,101555.70
2023-02-11T03:38:50.207Z,101561.30
2023-02-11T03:41:22.290Z,101557.52
2023-02-11T03:43:53.142Z,101561.58
2023-02-11T03:46:25.087Z,101559.73
2023-02-11T03:48:56.469Z,101559.92
2023-02-11T03:51:26.871Z,101553.36
2023-02-11T03:53:57.940Z,101550.56
2023-02-11T03:56:30.802Z,101553.01
2023-02-11T03:58:58.743Z,101549.56
2023-02-11T04:01:26.615Z,101550.59
2023-02-11T04:03:54.434Z,101543.41
2023-02-11T04:06:22.507Z,101537.44
2023-02-11T04:08:50.218Z,101532.41
2023-02-11T04:11:17.916Z,101523.73
2023-02-11T04:13:45.700Z,101517.38
2023-02-11T04:16:13.545Z,101516.17
2023-02-11T04:18:41.370Z,101512.22
2023-02-11T04:21:09.098Z,101510.37
2023-02-11T04:23:36.854Z,101505.08
2023-02-11T04:26:05.001Z,101501.83
2023-02-11T04:28:32.763Z,101500.24
2023-02-11T04:31:00.646Z,101487.67
2023-02-11T04:33:28.608Z,101483.64
2023-02-11T04:35:56.304Z,101478.96
2023-02-11T04:38:24.042Z,101475.44
2023-02-11T04:40:51.775Z,101471.95
2023-02-11T04:43:19.463Z,101461.56
2023-02-11T04:45:47.218Z,101470.47
2023-02-11T04:48:15.024Z,101476.14
2023-02-11T04:50:42.732Z,101481.76
2023-02-11T04:53:10.422Z,101478.81
2023-02-11T04:55:38.119Z,101480.98
2023-02-11T04:58:05.823Z,101480.08
2023-02-11T05:00:33.605Z,101484.89
2023-02-11T05:03:01.302Z,101482.73
2023-02-11T05:05:29.076Z,101475.94
2023-02-11T05:07:57.574Z,101470.66
2023-02-11T05:10:25.336Z,101467.74
2023-02-11T05:12:55.634Z,101463.81
2023-02-11T05:15:23.686Z,101461.89
2023-02-11T05:17:51.350Z,101451.29
2023-02-11T05:20:19.724Z,101448.05
2023-02-11T05:22:47.643Z,101437.05
2023-02-11T05:25:15.421Z,101431.27
2023-02-11T05:27:43.135Z,101426.02
2023-02-11T05:30:13.137Z,101428.83
2023-02-11T05:32:40.910Z,101430.42
2023-02-11T05:35:09.111Z,101430.73
2023-02-11T05:37:36.959Z,101430.14
2023-02-11T05:40:06.444Z,101425.54
2023-02-11T05:42:34.157Z,101422.73
2023-02-11T05:45:02.089Z,101421.48
2023-02-11T05:47:29.837Z,101426.65
2023-02-11T05:49:57.546Z,101430.73
2023-02-11T05:52:25.576Z,101435.19
2023-02-11T05:54:53.307Z,101430.65
2023-02-11T05:57:20.984Z,101426.27
2023-02-11T05:59:48.700Z,101427.00
2023-02-11T06:02:16.475Z,101424.05
2023-02-11T06:04:44.777Z,101427.33
2023-02-11T06:07:12.492Z,101426.95
2023-02-11T06:09:40.294Z,101422.69
2023-02-11T06:12:08.391Z,101416.52
2023-02-11T06:14:36.585Z,101416.15
2023-02-11T06:17:04.701Z,101413.41
2023-02-11T06:19:32.966Z,101412.94
2023-02-11T06:22:00.867Z,101412.89
2023-02-11T06:24:51.372Z,101413.02
2023-02-11T06:27:17.426Z,101408.34
2023-02-11T06:29:45.793Z,101414.21
2023-02-11T06:32:35.669Z,101421.81
2023-02-11T06:35:01.715Z,101420.75
2023-02-11T06:37:29.436Z,101417.17
2023-02-11T06:39:57.128Z,101416.39
2023-02-11T06:42:24.840Z,101416.41
2023-02-11T06:44:52.569Z,101411.55
2023-02-11T06:47:20.287Z,101410.88
2023-02-11T06:49:49.042Z,101403.99
2023-02-11T06:52:16.778Z,101404.23
2023-02-11T06:54:44.498Z,101405.17
2023-02-11T06:57:12.267Z,101408.52
2023-02-11T06:59:42.342Z,101410.38
2023-02-11T07:02:10.860Z,101408.95
2023-02-11T07:04:38.764Z,101410.89
2023-02-11T07:07:06.656Z,101409.15
2023-02-11T07:09:35.517Z,101410.15
2023-02-11T07:12:03.629Z,101405.30
2023-02-11T07:14:31.752Z,101398.00
2023-02-11T07:16:59.458Z,101394.65
2023-02-11T07:19:27.267Z,101380.24
2023-02-11T07:21:55.013Z,101383.41
2023-02-11T07:24:22.750Z,101380.91
2023-02-11T07:26:50.469Z,101384.95
2023-02-11T07:29:18.188Z,101389.48
2023-02-11T07:31:45.989Z,101392.06
2023-02-11T07:34:13.786Z,101389.84
2023-02-11T07:36:43.072Z,101381.80
2023-02-11T07:39:10.866Z,101370.18
2023-02-11T07:41:38.744Z,101373.73
2023-02-11T07:44:07.164Z,101386.16
2023-02-11T07:46:35.288Z,101386.45
2023-02-11T07:49:03.312Z,101385.39
2023-02-11T07:51:31.592Z,101385.48
2023-02-11T07:54:00.422Z,101381.91
2023-02-11T07:56:29.456Z,101380.67
2023-02-11T07:59:01.052Z,101382.77
2023-02-11T08:01:29.476Z,101384.05
2023-02-11T08:03:59.543Z,101385.32
2023-02-11T08:06:29.845Z,101389.26
2023-02-11T08:08:57.633Z,101397.48
2023-02-11T08:11:27.350Z,101395.95
2023-02-11T08:13:56.615Z,101402.15
2023-02-11T08:16:27.040Z,101399.35
2023-02-11T08:18:57.979Z,101396.82
2023-02-11T08:21:26.224Z,101396.14
2023-02-11T08:23:54.589Z,101395.34
2023-02-11T08:26:23.722Z,101396.94
2023-02-11T08:28:53.513Z,101404.48
2023-02-11T08:31:23.260Z,101407.92
2023-02-11T08:33:52.618Z,101413.40
2023-02-11T08:36:22.664Z,101417.14
2023-02-11T08:38:50.816Z,101418.94
2023-02-11T08:41:18.855Z,101412.95
2023-02-11T08:43:47.198Z,101406.66
2023-02-11T08:46:18.653Z,101402.61
2023-02-11T08:48:47.333Z,101402.86
2023-02-11T08:51:17.278Z,101396.57
2023-02-11T08:53:45.737Z,101394.45
2023-02-11T08:56:15.304Z,101389.14
2023-02-11T08:58:43.657Z,101386.13
2023-02-11T09:01:12.465Z,101386.33
2023-02-11T09:03:40.330Z,101383.86
2023-02-11T09:06:09.829Z,101375.81
2023-02-11T09:08:39.272Z,101364.30
2023-02-11T09:11:08.169Z,101359.57
2023-02-11T09:13:36.482Z,101358.61
2023-02-11T09:16:06.834Z,101361.38
2023-02-11T09:18:34.697Z,101355.70
2023-02-11T09:21:07.439Z,101352.35
2023-02-11T09:23:35.982Z,101348.53
2023-02-11T09:26:09.221Z,101347.65
2023-02-11T09:28:37.449Z,101338.06
2023-02-11T09:31:07.464Z,101346.02
2023-02-11T09:33:35.887Z,101342.46
2023-02-11T09:36:05.485Z,101335.77
2023-02-11T09:38:34.073Z,101329.17
2023-02-11T09:41:07.063Z,101326.91
2023-02-11T09:43:43.662Z,101320.20
2023-02-11T09:46:15.214Z,101312.61
2023-02-11T09:48:46.256Z,101303.31
2023-02-11T09:51:20.622Z,101308.23
2023-02-11T09:53:53.043Z,101296.14
2023-02-11T09:56:20.784Z,101300.00
2023-02-11T09:58:48.578Z,101300.27
2023-02-11T10:01:28.862Z,101300.52
2023-02-11T10:04:04.292Z,101299.64
2023-02-11T10:06:39.928Z,101303.08
2023-02-11T10:09:23.393Z,101311.73
2023-02-11T10:12:00.728Z,101301.08
2023-02-11T10:14:51.798Z,101301.63
2023-02-11T10:17:32.181Z,101285.25
2023-02-11T10:20:18.206Z,101287.89
2023-02-11T10:22:49.117Z,101295.38
2023-02-11T10:25:23.160Z,101289.95
2023-02-11T10:27:52.619Z,101297.00
2023-02-11T10:30:25.971Z,101285.96
2023-02-11T10:32:59.413Z,101267.66
2023-02-11T10:35:27.374Z,101276.68
2023-02-11T10:37:55.594Z,101288.40
2023-02-11T10:40:25.368Z,101274.25
2023-02-11T10:42:55.999Z,101274.08
2023-02-11T10:45:30.151Z,101272.23
2023-02-11T10:47:58.965Z,101272.48
2023-02-11T10:50:28.515Z,101276.11
2023-02-11T10:53:15.105Z,101274.38
2023-02-11T10:55:51.285Z,101275.31
2023-02-11T10:58:26.317Z,101273.52
2023-02-11T11:00:56.041Z,101276.42
2023-02-11T11:03:26.251Z,101275.89
2023-02-11T11:05:58.565Z,101279.10
2023-02-11T11:08:39.280Z,101278.92
2023-02-11T11:11:09.313Z,101281.13
2023-02-11T11:13:38.565Z,101278.67
2023-02-11T11:16:32.821Z,101280.89
2023-02-11T11:19:21.872Z,101287.21
2023-02-11T11:21:51.485Z,101267.22
2023-02-11T11:24:23.488Z,101262.70
2023-02-11T11:26:54.504Z,101266.88
2023-02-11T11:29:29.879Z,101275.23
2023-02-11T11:32:00.649Z,101270.73
2023-02-11T11:34:31.480Z,101278.25
2023-02-11T11:37:01.718Z,101278.22
2023-02-11T11:39:32.646Z,101268.02
2023-02-11T11:42:02.583Z,101271.40
2023-02-11T11:44:33.061Z,101275.23
2023-02-11T11:47:32.792Z,101249.53
2023-02-11T11:50:25.022Z,101256.63
2023-02-11T11:53:00.553Z,101260.41
2023-02-11T11:55:34.289Z,101273.10
2023-02-11T11:58:02.314Z,101263.06
2023-02-11T12:00:36.361Z,101258.59
2023-02-11T12:03:32.310Z,101251.62
2023-02-11T12:06:13.684Z,101251.27
2023-02-11T12:08:52.106Z,101256.56
2023-02-11T12:11:30.883Z,101245.24
2023-02-11T12:14:12.040Z,101239.25
2023-02-11T12:16:51.714Z,101235.30
2023-02-11T12:19:40.184Z,101236.32
2023-02-11T12:22:12.238Z,101222.59
2023-02-11T12:25:02.658Z,101223.61
2023-02-11T12:27:47.832Z,101213.55
2023-02-11T12:30:38.497Z,101209.36
2023-02-11T12:33:14.932Z,101218.05
2023-02-11T12:35:54.577Z,101222.09
2023-02-11T12:38:37.056Z,101226.08
2023-02-11T12:41:42.405Z,101219.45
2023-02-11T12:44:18.882Z,101212.40
2023-02-11T12:46:55.217Z,101199.63
2023-02-11T12:49:41.035Z,101200.68
2023-02-11T12:52:22.959Z,101211.48
2023-02-11T12:54:59.088Z,101201.75
2023-02-11T12:57:28.908Z,101194.75
2023-02-11T13:00:03.592Z,101189.59
2023-02-11T13:02:39.540Z,101200.35
2023-02-11T13:05:19.421Z,101202.31
2023-02-11T13:07:49.271Z,101192.08
2023-02-11T13:10:29.736Z,101198.00
2023-02-11T13:13:17.251Z,101208.77
2023-02-11T13:15:49.865Z,101206.50
2023-02-11T13:18:36.564Z,101198.45
2023-02-11T13:21:29.805Z,101195.40
2023-02-11T13:24:06.204Z,101198.05
2023-02-11T13:26:43.275Z,101196.89
2023-02-11T13:29:22.176Z,101205.38
2023-02-11T13:32:04.726Z,101200.74
2023-02-11T13:34:56.955Z,101197.91
2023-02-11T13:37:27.342Z,101204.61
2023-02-11T13:40:00.332Z,101198.41
2023-02-11T13:42:29.447Z,101192.95
2023-02-11T13:44:57.794Z,101194.08
2023-02-11T13:47:30.008Z,101195.71
2023-02-11T13:49:59.282Z,101194.80
2023-02-11T13:52:30.123Z,101191.09
2023-02-11T13:55:06.531Z,101185.83
2023-02-11T13:57:39.725Z,101195.89
2023-02-11T14:00:47.839Z,101193.73
2023-02-11T14:03:46.969Z,101194.80
2023-02-11T14:06:36.549Z,101191.62
2023-02-11T14:09:39.330Z,101196.70
2023-02-11T14:12:30.455Z,101204.05
2023-02-11T14:15:18.255Z,101205.13
2023-02-11T14:17:46.147Z,101205.38
2023-02-11T14:20:42.670Z,101204.66
2023-02-11T14:23:25.144Z,101212.86
2023-02-11T14:26:22.358Z,101215.05
2023-02-11T14:29:00.612Z,101219.95
2023-02-11T14:31:35.631Z,101223.64
2023-02-11T14:34:31.130Z,101226.41
2023-02-11T14:37:09.132Z,101234.09
2023-02-11T14:39:53.378Z,101239.29
2023-02-11T14:42:26.255Z,101239.17
2023-02-11T14:44:56.382Z,101244.38
2023-02-11T14:47:29.245Z,101248.44
2023-02-11T14:49:57.381Z,101247.80
2023-02-11T14:52:29.333Z,101257.02
2023-02-11T14:55:06.048Z,101259.10
2023-02-11T14:57:34.526Z,101253.23
2023-02-11T15:00:06.428Z,101260.56
2023-02-11T15:02:38.185Z,101258.71
2023-02-11T15:05:18.339Z,101261.79
2023-02-11T15:07:48.368Z,101263.63
2023-02-11T15:10:20.839Z,101265.27
2023-02-11T15:12:49.937Z,101266.02
2023-02-11T15:15:18.162Z,101261.20
2023-02-11T15:17:46.810Z,101263.66
2023-02-11T15:20:21.864Z,101259.60
2023-02-11T15:22:55.075Z,101263.13
2023-02-11T15:25:23.538Z,101268.20
2023-02-11T15:27:53.383Z,101264.48
2023-02-11T15:30:33.481Z,101268.91
2023-02-11T15:33:04.781Z,101269.95
2023-02-11T15:35:35.877Z,101262.80
2023-02-11T15:38:04.748Z,101272.08
2023-02-11T15:40:34.908Z,101269.77
2023-02-11T15:43:04.524Z,101276.31
2023-02-11T15:45:35.554Z,101281.80
2023-02-11T15:48:09.229Z,101285.58
2023-02-11T15:50:40.116Z,101287.67
2023-02-11T15:53:22.985Z,101287.40
2023-02-11T15:55:54.380Z,101290.43
2023-02-11T15:58:23.607Z,101291.55
2023-02-11T16:00:59.033Z,101291.17
2023-02-11T16:03:31.914Z,101292.67
2023-02-11T16:06:18.416Z,101293.79
2023-02-11T16:08:58.655Z,101296.92
2023-02-11T16:11:29.858Z,101296.17
2023-02-11T16:14:00.078Z,101294.28
2023-02-11T16:16:31.541Z,101293.85
2023-02-11T16:19:06.006Z,101285.67
2023-02-11T16:21:38.397Z,101280.27
2023-02-11T16:24:17.432Z,101278.14
2023-02-11T16:26:49.951Z,101279.33
2023-02-11T16:29:23.069Z,101288.91
2023-02-11T16:31:53.914Z,101296.02
2023-02-11T16:34:23.635Z,101301.59
2023-02-11T16:36:52.399Z,101306.39
2023-02-11T16:39:21.836Z,101306.26
2023-02-11T16:41:50.696Z,101306.42
2023-02-11T16:44:18.466Z,101313.99
2023-02-11T16:46:46.768Z,101313.17
2023-02-11T16:49:21.262Z,101318.08
2023-02-11T16:51:52.001Z,101319.82
2023-02-11T16:54:20.185Z,101328.14
2023-02-11T16:56:47.938Z,101334.29
2023-02-11T16:59:15.932Z,101335.70
2023-02-11T17:01:44.687Z,101334.31
2023-02-11T17:04:18.798Z,101337.62
2023-02-11T17:06:47.521Z,101347.50
2023-02-11T17:09:19.890Z,101358.70
2023-02-11T17:11:46.822Z,101355.91
2023-02-11T17:14:15.057Z,101359.65
2023-02-11T17:16:44.467Z,101358.75
2023-02-11T17:19:14.686Z,101366.71
2023-02-11T17:21:42.671Z,101382.52
2023-02-11T17:24:10.962Z,101379.80
2023-02-11T17:26:39.104Z,101379.77
2023-02-11T17:29:08.564Z,101386.73
2023-02-11T17:31:39.863Z,101387.54
2023-02-11T17:34:08.850Z,101392.45
2023-02-11T17:36:36.971Z,101388.44
2023-02-11T17:39:08.095Z,101389.13
2023-02-11T17:41:37.175Z,101386.84
2023-02-11T17:44:06.271Z,101390.11
2023-02-11T17:46:35.554Z,101402.37
2023-02-11T17:49:03.711Z,101399.66
2023-02-11T17:51:33.161Z,101403.27
2023-02-11T17:54:03.104Z,101409.05
2023-02-11T17:56:33.404Z,101408.63
2023-02-11T17:59:02.237Z,101407.40
2023-02-11T18:01:31.329Z,101415.18
2023-02-11T18:03:59.228Z,101416.95
2023-02-11T18:06:28.407Z,101412.63
2023-02-11T18:08:59.016Z,101414.11
2023-02-11T18:11:27.329Z,101413.47
2023-02-11T18:13:55.075Z,101414.42
2023-02-11T18:16:24.415Z,101415.13
2023-02-11T18:18:52.516Z,101416.63
2023-02-11T18:21:21.673Z,101416.88
2023-02-11T18:23:50.365Z,101418.09
2023-02-11T18:26:20.925Z,101427.45
2023-02-11T18:28:48.778Z,101427.39
2023-02-11T18:31:18.271Z,101436.73
2023-02-11T18:33:47.201Z,101437.55
2023-02-11T18:36:16.138Z,101433.39
2023-02-11T18:38:44.073Z,101430.45
2023-02-11T18:41:12.819Z,101427.02
2023-02-11T18:43:42.283Z,101430.13
2023-02-11T18:46:12.263Z,101423.08
2023-02-11T18:48:40.420Z,101428.33
2023-02-11T18:51:13.996Z,101428.51
2023-02-11T18:53:42.436Z,101424.15
2023-02-11T18:56:13.138Z,101435.55
2023-02-11T18:58:41.133Z,101437.65
2023-02-11T19:01:16.512Z,101445.23
2023-02-11T19:03:45.284Z,101439.23
2023-02-11T19:06:17.597Z,101441.20
2023-02-11T19:08:44.470Z,101441.09
2023-02-11T19:11:15.425Z,101448.02
2023-02-11T19:13:43.215Z,101453.30
2023-02-11T19:16:13.271Z,101462.33
2023-02-11T19:18:41.372Z,101459.80
2023-02-11T19:21:11.575Z,101463.16
2023-02-11T19:23:39.735Z,101466.20
2023-02-11T19:26:07.658Z,101464.08
2023-02-11T19:28:36.254Z,101466.78
2023-02-11T19:31:08.807Z,101464.78
2023-02-11T19:33:37.079Z,101470.40
2023-02-11T19:36:07.371Z,101464.58
2023-02-11T19:38:35.761Z,101468.59
2023-02-11T19:41:04.519Z,101466.98
2023-02-11T19:43:32.541Z,101463.60
2023-02-11T19:46:03.285Z,101464.77
2023-02-11T19:48:31.943Z,101467.70
2023-02-11T19:51:09.447Z,101467.86
2023-02-11T19:53:38.549Z,101469.73
2023-02-11T19:56:08.120Z,101469.92
2023-02-11T19:58:37.085Z,101471.34
2023-02-11T20:01:07.677Z,101478.94
2023-02-11T20:03:36.485Z,101479.23
2023-02-11T20:06:08.090Z,101488.73
2023-02-11T20:08:36.050Z,101489.58
2023-02-11T20:11:09.094Z,101493.57
2023-02-11T20:13:38.565Z,101500.97
2023-02-11T20:16:09.931Z,101498.17
2023-02-11T20:18:38.335Z,101498.06
2023-02-11T20:21:11.069Z,101500.45
2023-02-11T20:23:40.115Z,101503.78
2023-02-11T20:26:09.466Z,101507.29
2023-02-11T20:28:37.824Z,101515.48
2023-02-11T20:31:06.613Z,101516.02
2023-02-11T20:33:34.682Z,101514.23
2023-02-11T20:36:05.133Z,101517.22
2023-02-11T20:38:33.125Z,101520.92
2023-02-11T20:41:04.022Z,101523.50
2023-02-11T20:43:31.757Z,101534.03
2023-02-11T20:46:03.597Z,101536.16
2023-02-11T20:48:31.851Z,101539.59
2023-02-11T20:51:04.851Z,101542.42
2023-02-11T20:53:35.039Z,101539.73
2023-02-11T20:56:03.878Z,101546.60
2023-02-11T20:58:32.041Z,101549.89
2023-02-11T21:01:08.273Z,101550.32
2023-02-11T21:03:36.097Z,101550.91
2023-02-11T21:06:04.476Z,101555.98
2023-02-11T21:08:32.195Z,101562.76
2023-02-11T21:11:01.246Z,101563.06
2023-02-11T21:13:29.161Z,101571.03
2023-02-11T21:15:57.579Z,101576.73
2023-02-11T21:18:26.005Z,101579.37
2023-02-11T21:20:55.811Z,101581.61
2023-02-11T21:23:24.166Z,101587.71
2023-02-11T21:25:53.692Z,101587.23
2023-02-11T21:28:25.580Z,101588.65
2023-02-11T21:30:54.089Z,101589.73
2023-02-11T21:33:22.970Z,101590.43
2023-02-11T21:35:54.123Z,101594.45
2023-02-11T21:38:22.699Z,101595.51
2023-02-11T21:40:50.572Z,101596.22
2023-02-11T21:43:18.377Z,101599.42
2023-02-11T21:45:47.841Z,101605.58
2023-02-11T21:48:16.741Z,101610.27
2023-02-11T21:50:47.125Z,101614.86
2023-02-11T21:53:15.397Z,101614.19
2023-02-11T21:55:43.075Z,101617.95
2023-02-11T21:58:12.734Z,101614.95
2023-02-11T22:00:40.510Z,101615.71
2023-02-11T22:03:08.590Z,101626.31
2023-02-11T22:05:40.291Z,101635.73
2023-02-11T22:08:08.006Z,101641.58
2023-02-11T22:10:35.712Z,101640.55
2023-02-11T22:13:03.448Z,101646.77
2023-02-11T22:15:31.372Z,101643.13
2023-02-11T22:17:59.093Z,101648.55
2023-02-11T22:20:26.907Z,101652.13
2023-02-11T22:22:54.706Z,101657.73
2023-02-11T22:25:22.403Z,101664.70
2023-02-11T22:27:50.218Z,101670.76
2023-02-11T22:30:18.618Z,101677.79
2023-02-11T22:32:46.779Z,101680.90
2023-02-11T22:35:14.915Z,101683.63
2023-02-11T22:37:42.690Z,101679.52
2023-02-11T22:40:13.002Z,101682.85
2023-02-11T22:42:40.751Z,101685.89
2023-02-11T22:45:09.978Z,101687.41
2023-02-11T22:47:38.286Z,101686.83
2023-02-11T22:50:08.108Z,101685.41
2023-02-11T22:52:36.164Z,101680.99
2023-02-11T22:55:04.681Z,101689.62
2023-02-11T22:57:32.439Z,101696.95
2023-02-11T23:00:00.182Z,101693.63
2023-02-11T23:02:27.903Z,101688.96
2023-02-11T23:04:55.674Z,101690.22
2023-02-11T23:07:23.645Z,101693.52
2023-02-11T23:09:51.484Z,101689.95
2023-02-11T23:12:19.277Z,101698.80
2023-02-11T23:14:47.475Z,101697.95
2023-02-11T23:17:15.176Z,101691.73
2023-02-11T23:19:42.887Z,101697.91
2023-02-11T23:22:10.595Z,101701.84
2023-02-11T23:24:38.433Z,101696.61
2023-02-11T23:27:06.680Z,101699.79
2023-02-11T23:29:34.463Z,101702.09
2023-02-11T23:32:02.248Z,101701.71
2023-02-11T23:34:30.095Z,101704.83
2023-02-11T23:36:59.026Z,101708.25
2023-02-11T23:39:27.120Z,101715.77
2023-02-11T23:41:58.312Z,101723.77
2023-02-11T23:44:26.265Z,101725.63
2023-02-11T23:46:54.214Z,101729.83
2023-02-11T23:49:22.112Z,101733.64
2023-02-11T23:51:49.911Z,101734.98
2023-02-11T23:54:17.677Z,101731.86
2023-02-11T23:56:45.414Z,101731.60
2023-02-11T23:59:13.406Z,101734.70
